MOL Sparkle — 3EWX3 — position and weather

sailwx.info

Track history (hours):
 
Tides and Currents Weather Stations Pressure Air Temp Water Temp Dewpoint Dewpoint Depression Visibility Wind Speed Wind Dir Waves Ship Positions

MOL Sparkle

Last reported at 2018-Feb-22 11:29 UTC. Time now 2018-Feb-23 08:33 UTC.
Position N 34°19' E 129°53'.

Length 199 m; draft 10.4 m.

Type: Ship (hazmat cat B). MMSI: 372800000.

Date/timePositionNaut miles runAvg speedWind from/ knotsBaromVisibWave heightAir tempDewpointWater temp
2018-Feb-22 11:29N 34°19' E 129°53'711.5
2018-Feb-22 10:50N 34°13' E 129°57'511.4
2018-Feb-22 10:23N 34°08' E 130°00'511.6
2018-Feb-22 10:00N 34°04' E 130°03'611.7
2018-Feb-22 09:30N 33°58' E 130°05'611.6
2018-Feb-22 09:00N 33°53' E 130°08'611.3
2018-Feb-22 08:31N 33°48' E 130°11'611.3
2018-Feb-22 08:00N 33°43' E 130°14'611.2
2018-Feb-22 07:31N 33°39' E 130°18'4 8.2
2018-Feb-22 07:00N 33°39' E 130°23'1 1.6
2018-Feb-22 06:29N 33°39' E 130°24'0 0.0
2018-Feb-22 05:59N 33°39' E 130°24'0 0.0
2018-Feb-22 05:29N 33°39' E 130°24'0 0.0
2018-Feb-22 04:59N 33°39' E 130°24'0 0.0
2018-Feb-22 04:29N 33°39' E 130°24'0 0.0
2018-Feb-22 03:59N 33°39' E 130°24'0 0.0
2018-Feb-22 03:29N 33°39' E 130°24'0 0.0
2018-Feb-22 02:59N 33°39' E 130°24'0 0.0
2018-Feb-22 02:29N 33°39' E 130°24'0 0.0
2018-Feb-22 01:59N 33°39' E 130°24'0 0.0
2018-Feb-22 01:29N 33°39' E 130°24'0 0.0
2018-Feb-22 00:59N 33°39' E 130°24'0 0.0
2018-Feb-22 00:29N 33°39' E 130°24'0 0.0
2018-Feb-21 23:59N 33°39' E 130°24'0 0.0
2018-Feb-21 23:29N 33°39' E 130°24'0 0.0
2018-Feb-21 22:59N 33°39' E 130°24'0 0.0
2018-Feb-21 22:29N 33°39' E 130°24'0 0.0
2018-Feb-21 21:59N 33°39' E 130°24'0 0.0
2018-Feb-21 21:29N 33°39' E 130°24'0 0.0
2018-Feb-21 20:59N 33°39' E 130°24'0 0.0
2018-Feb-21 20:29N 33°39' E 130°24'0 0.0
2018-Feb-21 19:59N 33°39' E 130°24'0 0.0
2018-Feb-21 19:29N 33°39' E 130°24'0 0.0
2018-Feb-21 18:59N 33°39' E 130°24'0 0.0
2018-Feb-21 18:29N 33°39' E 130°24'0 0.0
2018-Feb-21 17:59N 33°39' E 130°24'0 0.0
2018-Feb-21 17:29N 33°39' E 130°24'3 5.4
2018-Feb-21 17:00N 33°38' E 130°21'5 9.9
2018-Feb-21 16:30N 33°40' E 130°16'510.3
2018-Feb-21 16:00N 33°45' E 130°13'611.3
2018-Feb-21 15:30N 33°50' E 130°13'612.1
2018-Feb-21 15:00N 33°55' E 130°17'612.0
2018-Feb-21 14:30N 33°59' E 130°23'612.4
2018-Feb-21 14:00N 34°02' E 130°29'611.4
2018-Feb-21 13:30N 34°03' E 130°36'612.5
2018-Feb-21 13:00N 34°04' E 130°43'612.5
2018-Feb-21 12:30N 34°02' E 130°50'4 8.7
2018-Feb-21 12:00N 33°57' E 130°52'4 7.1
2018-Feb-21 11:31N 33°56' E 130°56'611.0
2018-Feb-21 11:01N 33°58' E 131°03'4 8.7
2018-Feb-21 10:30N 33°55' E 131°07'611.2
2018-Feb-21 10:01N 33°52' E 131°12'815.9
2018-Feb-21 09:30N 33°50' E 131°22'815.7
2018-Feb-21 09:01N 33°49' E 131°31'815.3
2018-Feb-21 08:30N 33°47' E 131°40'815.7
2018-Feb-21 08:00N 33°43' E 131°48'816.8
2018-Feb-21 07:30N 33°35' E 131°52'816.4
2018-Feb-21 07:01N 33°27' E 131°55'916.8
2018-Feb-21 06:30N 33°19' E 131°59'714.1
2018-Feb-21 06:00N 33°14' E 132°05'917.5
2018-Feb-21 05:29N 33°07' E 132°11'5915.5
2018-Feb-21 01:40N 32°43' E 133°16'19020.2
2018-Feb-20 16:17N 34°01' E 136°43'3220.6
2018-Feb-20 14:43N 34°28' E 137°03'514.2
2018-Feb-20 14:23N 34°33' E 137°01'513.4
2018-Feb-20 14:00N 34°36' E 136°57'919.0
2018-Feb-20 13:30N 34°43' E 136°49'919.1
2018-Feb-20 13:01N 34°52' E 136°46'816.0
2018-Feb-20 12:30N 34°60' E 136°47'2 4.5
2018-Feb-20 11:59N 35°02' E 136°49'0 0.0
2018-Feb-20 11:29N 35°02' E 136°49'0 0.0
2018-Feb-20 10:59N 35°02' E 136°49'0 0.0
2018-Feb-20 10:29N 35°02' E 136°49'0 0.0
2018-Feb-20 09:59N 35°02' E 136°49'0 0.0
2018-Feb-20 09:29N 35°02' E 136°49'0 0.0
2018-Feb-20 08:59N 35°02' E 136°49'0 0.0
2018-Feb-20 08:29N 35°02' E 136°49'0 0.0
2018-Feb-20 07:59N 35°02' E 136°49'0 0.0
2018-Feb-20 07:29N 35°02' E 136°49'0 0.0
2018-Feb-20 06:59N 35°02' E 136°49'0 0.0
2018-Feb-20 06:29N 35°02' E 136°49'0 0.0
2018-Feb-20 05:59N 35°02' E 136°49'0 0.0
2018-Feb-20 05:29N 35°02' E 136°49'0 0.0
2018-Feb-20 05:00N 35°02' E 136°49'0 0.5
2018-Feb-20 04:30N 35°01' E 136°49'3 6.6
2018-Feb-20 04:00N 34°59' E 136°46'2 4.6
2018-Feb-20 03:30N 34°58' E 136°44'3 6.8
2018-Feb-20 03:00N 34°60' E 136°40'0 0.1
2018-Feb-20 02:25N 34°60' E 136°40'0 0.1
2018-Feb-20 01:58N 34°60' E 136°40'0 0.0
2018-Feb-20 01:28N 34°60' E 136°40'0 0.0
2018-Feb-20 00:58N 34°60' E 136°40'0 0.1
2018-Feb-20 00:25N 34°60' E 136°40'0 0.1
2018-Feb-19 23:58N 34°60' E 136°40'0 0.0
2018-Feb-19 23:28N 34°60' E 136°40'0 0.1
2018-Feb-19 22:52N 34°60' E 136°40'0 0.9
2018-Feb-19 22:30N 34°60' E 136°41'4 8.9
2018-Feb-19 22:00N 34°56' E 136°44'714.9
2018-Feb-19 21:30N 34°49' E 136°45'815.8
2018-Feb-19 21:00N 34°42' E 136°50'816.1
2018-Feb-19 20:30N 34°36' E 136°57'913.1
2018-Feb-19 19:51N 34°31' E 137°05'7 8.3
2018-Feb-19 18:58N 34°28' E 137°13'612.4
2018-Feb-19 18:28N 34°28' E 137°21'612.2
2018-Feb-19 17:58N 34°28' E 137°28'612.0
2018-Feb-19 17:27N 34°28' E 137°36'812.0
2018-Feb-19 16:47N 34°28' E 137°46'412.2
2018-Feb-19 16:28N 34°28' E 137°50'612.1
2018-Feb-19 15:57N 34°28' E 137°58'612.2
2018-Feb-19 15:27N 34°27' E 138°05'612.0
2018-Feb-19 14:55N 34°28' E 138°13'711.8
2018-Feb-19 14:21N 34°32' E 138°20'512.3
2018-Feb-19 13:54N 34°37' E 138°23'512.7
2018-Feb-19 13:30N 34°41' E 138°25'612.5
2018-Feb-19 13:00N 34°47' E 138°28'612.6
2018-Feb-19 12:30N 34°53' E 138°30'713.1
2018-Feb-19 12:00N 34°59' E 138°33'3 6.5
2018-Feb-19 11:30N 35°02' E 138°31'1 1.2
2018-Feb-19 10:59N 35°02' E 138°31'0 0.0
2018-Feb-19 10:29N 35°02' E 138°31'0 0.0
2018-Feb-19 09:59N 35°02' E 138°31'0 0.0
2018-Feb-19 09:29N 35°02' E 138°31'0 0.0
2018-Feb-19 08:59N 35°02' E 138°31'0 0.0
2018-Feb-19 08:23N 35°02' E 138°31'0 0.0
2018-Feb-19 07:59N 35°02' E 138°31'0 0.0
2018-Feb-19 07:29N 35°02' E 138°31'0 0.0
2018-Feb-19 06:59N 35°02' E 138°31'0 0.0
2018-Feb-19 06:29N 35°02' E 138°31'0 0.0
2018-Feb-19 05:59N 35°02' E 138°31'0 0.0
2018-Feb-19 05:29N 35°02' E 138°31'0 0.0
2018-Feb-19 04:59N 35°02' E 138°31'0 0.0
2018-Feb-19 04:29N 35°02' E 138°31'0 0.0
2018-Feb-19 03:59N 35°02' E 138°31'0 0.0
2018-Feb-19 03:29N 35°02' E 138°31'0 0.0
2018-Feb-19 02:59N 35°02' E 138°31'1 1.8
2018-Feb-19 02:30N 35°02' E 138°31'4 7.0
2018-Feb-19 02:00N 34°59' E 138°34'4 8.6
2018-Feb-19 01:31N 34°55' E 138°36'612.1
2018-Feb-19 01:00N 34°49' E 138°38'612.4
2018-Feb-19 00:30N 34°43' E 138°40'712.7
2018-Feb-18 23:59N 34°37' E 138°43'712.3
2018-Feb-18 23:27N 34°33' E 138°49'613.5
2018-Feb-18 23:00N 34°33' E 138°57'814.9
2018-Feb-18 22:29N 34°38' E 139°04'815.0
2018-Feb-18 21:55N 34°44' E 139°11'614.4
2018-Feb-18 21:30N 34°49' E 139°15'714.5
2018-Feb-18 21:00N 34°54' E 139°22'714.5
2018-Feb-18 20:30N 34°58' E 139°29'714.6
2018-Feb-18 20:00N 35°02' E 139°36'714.6
2018-Feb-18 19:30N 35°06' E 139°43'713.9
2018-Feb-18 19:00N 35°13' E 139°46'612.3
2018-Feb-18 18:30N 35°19' E 139°44'714.0
2018-Feb-18 18:00N 35°26' E 139°43'1 2.7
2018-Feb-18 17:28N 35°26' E 139°41'0 0.0
2018-Feb-18 16:58N 35°26' E 139°41'0 0.0
2018-Feb-18 16:28N 35°26' E 139°41'0 0.0
2018-Feb-18 15:58N 35°26' E 139°41'0 0.0
2018-Feb-18 15:28N 35°26' E 139°41'0 0.0
2018-Feb-18 14:58N 35°26' E 139°41'0 0.0
2018-Feb-18 14:28N 35°26' E 139°41'0 0.0
2018-Feb-18 13:58N 35°26' E 139°41'0 0.0
2018-Feb-18 13:28N 35°26' E 139°41'0 0.0
2018-Feb-18 12:58N 35°26' E 139°41'0 0.0
2018-Feb-18 12:28N 35°26' E 139°41'0 0.0
2018-Feb-18 11:58N 35°26' E 139°41'0 0.0
2018-Feb-18 11:28N 35°26' E 139°41'0 0.0
2018-Feb-18 11:00N 35°26' E 139°41'2 4.3
2018-Feb-18 10:30N 35°26' E 139°43'611.5
2018-Feb-18 10:00N 35°29' E 139°49'510.2
2018-Feb-18 09:31N 35°34' E 139°50'4 7.4
2018-Feb-18 08:59N 35°36' E 139°46'0 0.2
2018-Feb-18 08:30N 35°36' E 139°46'0 0.0
2018-Feb-18 07:57N 35°36' E 139°46'0 0.0
2018-Feb-18 07:30N 35°36' E 139°46'0 0.0
2018-Feb-18 07:00N 35°36' E 139°46'0 0.0
2018-Feb-18 06:30N 35°36' E 139°46'0 0.0
2018-Feb-18 06:00N 35°36' E 139°46'0 0.0
2018-Feb-18 05:30N 35°36' E 139°46'0 0.0
2018-Feb-18 05:00N 35°36' E 139°46'0 0.0
2018-Feb-18 04:30N 35°36' E 139°46'0 0.0
2018-Feb-18 04:00N 35°36' E 139°46'0 0.0
2018-Feb-18 03:30N 35°36' E 139°46'0 0.0
2018-Feb-18 03:00N 35°36' E 139°46'0 0.0
2018-Feb-18 02:30N 35°36' E 139°46'0 0.0
2018-Feb-18 02:00N 35°36' E 139°46'0 0.0
2018-Feb-18 01:27N 35°36' E 139°46'0 0.0
2018-Feb-18 01:00N 35°36' E 139°46'0 0.0
2018-Feb-18 00:30N 35°36' E 139°46'0 0.0
2018-Feb-18 00:00N 35°36' E 139°46'0 0.0
2018-Feb-17 23:30N 35°36' E 139°46'0 0.0
2018-Feb-17 23:00N 35°36' E 139°46'1 2.1
2018-Feb-17 22:30N 35°36' E 139°47'510.8
2018-Feb-17 22:00N 35°32' E 139°52'713.3
2018-Feb-17 21:30N 35°26' E 139°48'713.3
2018-Feb-17 21:00N 35°20' E 139°45'611.5
2018-Feb-17 20:31N 35°15' E 139°47'611.9
2018-Feb-17 20:01N 35°09' E 139°47'4 7.1
2018-Feb-17 19:30N 35°05' E 139°45'4 8.3
2018-Feb-17 19:00N 35°02' E 139°44'5 9.2
2018-Feb-17 18:31N 34°57' E 139°41'611.6
2018-Feb-17 18:00N 34°52' E 139°38'611.6
2018-Feb-17 17:30N 34°47' E 139°34'1012.2
2018-Feb-17 16:42N 34°39' E 139°28'312.6
2018-Feb-17 16:26N 34°37' E 139°25'512.6
2018-Feb-17 16:00N 34°35' E 139°19'714.2
2018-Feb-17 15:30N 34°33' E 139°11'713.4
2018-Feb-17 15:00N 34°29' E 139°04'714.0
2018-Feb-17 14:30N 34°25' E 138°57'814.0
2018-Feb-17 13:57N 34°21' E 138°49'614.1
2018-Feb-17 13:29N 34°17' E 138°43'714.5
2018-Feb-17 12:58N 34°14' E 138°34'815.5
2018-Feb-17 12:28N 34°10' E 138°26'815.3
2018-Feb-17 11:58N 34°06' E 138°18'  
2018-Feb-15 06:04N 24°33' E 123°45'120.8
2018-Feb-15 06:00N 24°32' E 123°44'1121.2
2018-Feb-15 05:30N 24°24' E 123°36'1121.4
2018-Feb-15 05:00N 24°16' E 123°29'1121.2
2018-Feb-15 04:30N 24°07' E 123°23'1121.8
2018-Feb-15 04:00N 23°57' E 123°18'1122.2
2018-Feb-15 03:30N 23°47' E 123°13'1122.0
2018-Feb-15 03:00N 23°37' E 123°07'57421.0
2018-Feb-13 23:45N 14°25' E 120°24'618.7
2018-Feb-13 23:27N 14°23' E 120°30'817.4
2018-Feb-13 23:00N 14°26' E 120°37'1019.1
2018-Feb-13 22:30N 14°32' E 120°45'815.9
2018-Feb-13 22:00N 14°35' E 120°53'4 8.3
2018-Feb-13 21:30N 14°36' E 120°57'0 0.4
2018-Feb-13 21:00N 14°36' E 120°57'0 0.0
2018-Feb-13 20:24N 14°36' E 120°57'0 0.0
2018-Feb-13 20:00N 14°36' E 120°57'0 0.0
2018-Feb-13 19:30N 14°36' E 120°57'0 0.0
2018-Feb-13 19:00N 14°36' E 120°57'0 0.0
2018-Feb-13 18:30N 14°36' E 120°57'0 0.1
2018-Feb-13 18:00N 14°36' E 120°57'0 0.1
2018-Feb-13 17:30N 14°36' E 120°57'0 0.0
2018-Feb-13 17:00N 14°36' E 120°57'0 0.0
2018-Feb-13 16:30N 14°36' E 120°57'0 0.0
2018-Feb-13 16:00N 14°36' E 120°57'0 0.0
2018-Feb-13 15:30N 14°36' E 120°57'0 0.0
2018-Feb-13 14:54N 14°36' E 120°57'0 0.0
2018-Feb-13 14:27N 14°36' E 120°57'0 0.0
2018-Feb-13 13:54N 14°36' E 120°57'0 0.1
2018-Feb-13 13:30N 14°36' E 120°57'0 0.1
2018-Feb-13 13:00N 14°36' E 120°57'0 0.1
2018-Feb-13 12:30N 14°36' E 120°57'0 0.1
2018-Feb-13 12:00N 14°36' E 120°57'0 0.0
2018-Feb-13 11:30N 14°36' E 120°57'0 0.0
2018-Feb-13 10:42N 14°36' E 120°57'0 0.0
2018-Feb-13 10:30N 14°36' E 120°57'0 0.0
2018-Feb-13 10:00N 14°36' E 120°57'0 0.0
2018-Feb-13 09:30N 14°36' E 120°57'0 0.0
2018-Feb-13 09:00N 14°36' E 120°57'0 0.0
2018-Feb-13 08:30N 14°36' E 120°57'0 0.0
2018-Feb-13 08:00N 14°36' E 120°57'0 0.0
2018-Feb-13 07:21N 14°36' E 120°57'0 0.0
2018-Feb-13 07:00N 14°36' E 120°57'0 0.0
2018-Feb-13 05:15N 14°36' E 120°57'0 0.2
2018-Feb-13 04:54N 14°36' E 120°57'0 0.1
2018-Feb-13 04:30N 14°36' E 120°57'0 0.0
2018-Feb-13 01:54N 14°36' E 120°57'0 0.1
2018-Feb-13 01:30N 14°36' E 120°57'0 0.1
2018-Feb-13 00:30N 14°36' E 120°57'0 0.0
2018-Feb-12 23:57N 14°36' E 120°57'0 0.0
2018-Feb-12 23:27N 14°36' E 120°57'0 0.1
2018-Feb-12 22:57N 14°36' E 120°57'0 0.1
2018-Feb-12 22:21N 14°36' E 120°57'0 0.0
2018-Feb-12 19:24N 14°36' E 120°57'0 0.1
2018-Feb-12 19:00N 14°36' E 120°57'1 2.2
2018-Feb-12 18:27N 14°36' E 120°56'3 6.1
2018-Feb-12 18:01N 14°36' E 120°53'5 9.2
2018-Feb-12 17:29N 14°34' E 120°49'  
Track history (hours):
 
Tides and Currents Weather Stations Pressure Air Temp Water Temp Dewpoint Dewpoint Depression Visibility Wind Speed Wind Dir Waves Ship Positions

MOL Sparkle

Last reported at 2018-Feb-22 11:29 UTC. Time now 2018-Feb-23 08:33 UTC.
Position N 34°19' E 129°53'.

Length 199 m; draft 10.4 m.

Type: Ship (hazmat cat B). MMSI: 372800000.

Date/timePositionNaut miles runAvg speedWind from/ knotsBaromVisibWave heightAir tempDewpointWater temp
2018-Feb-22 11:29N 34°19' E 129°53'711.5
2018-Feb-22 10:50N 34°13' E 129°57'511.4
2018-Feb-22 10:23N 34°08' E 130°00'511.6
2018-Feb-22 10:00N 34°04' E 130°03'611.7
2018-Feb-22 09:30N 33°58' E 130°05'611.6
2018-Feb-22 09:00N 33°53' E 130°08'611.3
2018-Feb-22 08:31N 33°48' E 130°11'611.3
2018-Feb-22 08:00N 33°43' E 130°14'611.2
2018-Feb-22 07:31N 33°39' E 130°18'4 8.2
2018-Feb-22 07:00N 33°39' E 130°23'1 1.6
2018-Feb-22 06:29N 33°39' E 130°24'0 0.0
2018-Feb-22 05:59N 33°39' E 130°24'0 0.0
2018-Feb-22 05:29N 33°39' E 130°24'0 0.0
2018-Feb-22 04:59N 33°39' E 130°24'0 0.0
2018-Feb-22 04:29N 33°39' E 130°24'0 0.0
2018-Feb-22 03:59N 33°39' E 130°24'0 0.0
2018-Feb-22 03:29N 33°39' E 130°24'0 0.0
2018-Feb-22 02:59N 33°39' E 130°24'0 0.0
2018-Feb-22 02:29N 33°39' E 130°24'0 0.0
2018-Feb-22 01:59N 33°39' E 130°24'0 0.0
2018-Feb-22 01:29N 33°39' E 130°24'0 0.0
2018-Feb-22 00:59N 33°39' E 130°24'0 0.0
2018-Feb-22 00:29N 33°39' E 130°24'0 0.0
2018-Feb-21 23:59N 33°39' E 130°24'0 0.0
2018-Feb-21 23:29N 33°39' E 130°24'0 0.0
2018-Feb-21 22:59N 33°39' E 130°24'0 0.0
2018-Feb-21 22:29N 33°39' E 130°24'0 0.0
2018-Feb-21 21:59N 33°39' E 130°24'0 0.0
2018-Feb-21 21:29N 33°39' E 130°24'0 0.0
2018-Feb-21 20:59N 33°39' E 130°24'0 0.0
2018-Feb-21 20:29N 33°39' E 130°24'0 0.0
2018-Feb-21 19:59N 33°39' E 130°24'0 0.0
2018-Feb-21 19:29N 33°39' E 130°24'0 0.0
2018-Feb-21 18:59N 33°39' E 130°24'0 0.0
2018-Feb-21 18:29N 33°39' E 130°24'0 0.0
2018-Feb-21 17:59N 33°39' E 130°24'0 0.0
2018-Feb-21 17:29N 33°39' E 130°24'3 5.4
2018-Feb-21 17:00N 33°38' E 130°21'5 9.9
2018-Feb-21 16:30N 33°40' E 130°16'510.3
2018-Feb-21 16:00N 33°45' E 130°13'611.3
2018-Feb-21 15:30N 33°50' E 130°13'612.1
2018-Feb-21 15:00N 33°55' E 130°17'612.0
2018-Feb-21 14:30N 33°59' E 130°23'612.4
2018-Feb-21 14:00N 34°02' E 130°29'611.4
2018-Feb-21 13:30N 34°03' E 130°36'612.5
2018-Feb-21 13:00N 34°04' E 130°43'612.5
2018-Feb-21 12:30N 34°02' E 130°50'4 8.7
2018-Feb-21 12:00N 33°57' E 130°52'4 7.1
2018-Feb-21 11:31N 33°56' E 130°56'611.0
2018-Feb-21 11:01N 33°58' E 131°03'4 8.7
2018-Feb-21 10:30N 33°55' E 131°07'611.2
2018-Feb-21 10:01N 33°52' E 131°12'815.9
2018-Feb-21 09:30N 33°50' E 131°22'815.7
2018-Feb-21 09:01N 33°49' E 131°31'815.3
2018-Feb-21 08:30N 33°47' E 131°40'815.7
2018-Feb-21 08:00N 33°43' E 131°48'816.8
2018-Feb-21 07:30N 33°35' E 131°52'816.4
2018-Feb-21 07:01N 33°27' E 131°55'916.8
2018-Feb-21 06:30N 33°19' E 131°59'714.1
2018-Feb-21 06:00N 33°14' E 132°05'917.5
2018-Feb-21 05:29N 33°07' E 132°11'5915.5
2018-Feb-21 01:40N 32°43' E 133°16'19020.2
2018-Feb-20 16:17N 34°01' E 136°43'3220.6
2018-Feb-20 14:43N 34°28' E 137°03'514.2
2018-Feb-20 14:23N 34°33' E 137°01'513.4
2018-Feb-20 14:00N 34°36' E 136°57'919.0
2018-Feb-20 13:30N 34°43' E 136°49'919.1
2018-Feb-20 13:01N 34°52' E 136°46'816.0
2018-Feb-20 12:30N 34°60' E 136°47'2 4.5
2018-Feb-20 11:59N 35°02' E 136°49'0 0.0
2018-Feb-20 11:29N 35°02' E 136°49'0 0.0
2018-Feb-20 10:59N 35°02' E 136°49'0 0.0
2018-Feb-20 10:29N 35°02' E 136°49'0 0.0
2018-Feb-20 09:59N 35°02' E 136°49'0 0.0
2018-Feb-20 09:29N 35°02' E 136°49'0 0.0
2018-Feb-20 08:59N 35°02' E 136°49'0 0.0
2018-Feb-20 08:29N 35°02' E 136°49'0 0.0
2018-Feb-20 07:59N 35°02' E 136°49'0 0.0
2018-Feb-20 07:29N 35°02' E 136°49'0 0.0
2018-Feb-20 06:59N 35°02' E 136°49'0 0.0
2018-Feb-20 06:29N 35°02' E 136°49'0 0.0
2018-Feb-20 05:59N 35°02' E 136°49'0 0.0
2018-Feb-20 05:29N 35°02' E 136°49'0 0.0
2018-Feb-20 05:00N 35°02' E 136°49'0 0.5
2018-Feb-20 04:30N 35°01' E 136°49'3 6.6
2018-Feb-20 04:00N 34°59' E 136°46'2 4.6
2018-Feb-20 03:30N 34°58' E 136°44'3 6.8
2018-Feb-20 03:00N 34°60' E 136°40'0 0.1
2018-Feb-20 02:25N 34°60' E 136°40'0 0.1
2018-Feb-20 01:58N 34°60' E 136°40'0 0.0
2018-Feb-20 01:28N 34°60' E 136°40'0 0.0
2018-Feb-20 00:58N 34°60' E 136°40'0 0.1
2018-Feb-20 00:25N 34°60' E 136°40'0 0.1
2018-Feb-19 23:58N 34°60' E 136°40'0 0.0
2018-Feb-19 23:28N 34°60' E 136°40'0 0.1
2018-Feb-19 22:52N 34°60' E 136°40'0 0.9
2018-Feb-19 22:30N 34°60' E 136°41'4 8.9
2018-Feb-19 22:00N 34°56' E 136°44'714.9
2018-Feb-19 21:30N 34°49' E 136°45'815.8
2018-Feb-19 21:00N 34°42' E 136°50'816.1
2018-Feb-19 20:30N 34°36' E 136°57'913.1
2018-Feb-19 19:51N 34°31' E 137°05'7 8.3
2018-Feb-19 18:58N 34°28' E 137°13'612.4
2018-Feb-19 18:28N 34°28' E 137°21'612.2
2018-Feb-19 17:58N 34°28' E 137°28'612.0
2018-Feb-19 17:27N 34°28' E 137°36'812.0
2018-Feb-19 16:47N 34°28' E 137°46'412.2
2018-Feb-19 16:28N 34°28' E 137°50'612.1
2018-Feb-19 15:57N 34°28' E 137°58'612.2
2018-Feb-19 15:27N 34°27' E 138°05'612.0
2018-Feb-19 14:55N 34°28' E 138°13'711.8
2018-Feb-19 14:21N 34°32' E 138°20'512.3
2018-Feb-19 13:54N 34°37' E 138°23'512.7
2018-Feb-19 13:30N 34°41' E 138°25'612.5
2018-Feb-19 13:00N 34°47' E 138°28'612.6
2018-Feb-19 12:30N 34°53' E 138°30'713.1
2018-Feb-19 12:00N 34°59' E 138°33'3 6.5
2018-Feb-19 11:30N 35°02' E 138°31'1 1.2
2018-Feb-19 10:59N 35°02' E 138°31'0 0.0
2018-Feb-19 10:29N 35°02' E 138°31'0 0.0
2018-Feb-19 09:59N 35°02' E 138°31'0 0.0
2018-Feb-19 09:29N 35°02' E 138°31'0 0.0
2018-Feb-19 08:59N 35°02' E 138°31'0 0.0
2018-Feb-19 08:23N 35°02' E 138°31'0 0.0
2018-Feb-19 07:59N 35°02' E 138°31'0 0.0
2018-Feb-19 07:29N 35°02' E 138°31'0 0.0
2018-Feb-19 06:59N 35°02' E 138°31'0 0.0
2018-Feb-19 06:29N 35°02' E 138°31'0 0.0
2018-Feb-19 05:59N 35°02' E 138°31'0 0.0
2018-Feb-19 05:29N 35°02' E 138°31'0 0.0
2018-Feb-19 04:59N 35°02' E 138°31'0 0.0
2018-Feb-19 04:29N 35°02' E 138°31'0 0.0
2018-Feb-19 03:59N 35°02' E 138°31'0 0.0
2018-Feb-19 03:29N 35°02' E 138°31'0 0.0
2018-Feb-19 02:59N 35°02' E 138°31'1 1.8
2018-Feb-19 02:30N 35°02' E 138°31'4 7.0
2018-Feb-19 02:00N 34°59' E 138°34'4 8.6
2018-Feb-19 01:31N 34°55' E 138°36'612.1
2018-Feb-19 01:00N 34°49' E 138°38'612.4
2018-Feb-19 00:30N 34°43' E 138°40'712.7
2018-Feb-18 23:59N 34°37' E 138°43'712.3
2018-Feb-18 23:27N 34°33' E 138°49'613.5
2018-Feb-18 23:00N 34°33' E 138°57'814.9
2018-Feb-18 22:29N 34°38' E 139°04'815.0
2018-Feb-18 21:55N 34°44' E 139°11'614.4
2018-Feb-18 21:30N 34°49' E 139°15'714.5
2018-Feb-18 21:00N 34°54' E 139°22'714.5
2018-Feb-18 20:30N 34°58' E 139°29'714.6
2018-Feb-18 20:00N 35°02' E 139°36'714.6
2018-Feb-18 19:30N 35°06' E 139°43'713.9
2018-Feb-18 19:00N 35°13' E 139°46'612.3
2018-Feb-18 18:30N 35°19' E 139°44'714.0
2018-Feb-18 18:00N 35°26' E 139°43'1 2.7
2018-Feb-18 17:28N 35°26' E 139°41'0 0.0
2018-Feb-18 16:58N 35°26' E 139°41'0 0.0
2018-Feb-18 16:28N 35°26' E 139°41'0 0.0
2018-Feb-18 15:58N 35°26' E 139°41'0 0.0
2018-Feb-18 15:28N 35°26' E 139°41'0 0.0
2018-Feb-18 14:58N 35°26' E 139°41'0 0.0
2018-Feb-18 14:28N 35°26' E 139°41'0 0.0
2018-Feb-18 13:58N 35°26' E 139°41'0 0.0
2018-Feb-18 13:28N 35°26' E 139°41'0 0.0
2018-Feb-18 12:58N 35°26' E 139°41'0 0.0
2018-Feb-18 12:28N 35°26' E 139°41'0 0.0
2018-Feb-18 11:58N 35°26' E 139°41'0 0.0
2018-Feb-18 11:28N 35°26' E 139°41'0 0.0
2018-Feb-18 11:00N 35°26' E 139°41'2 4.3
2018-Feb-18 10:30N 35°26' E 139°43'611.5
2018-Feb-18 10:00N 35°29' E 139°49'510.2
2018-Feb-18 09:31N 35°34' E 139°50'4 7.4
2018-Feb-18 08:59N 35°36' E 139°46'0 0.2
2018-Feb-18 08:30N 35°36' E 139°46'0 0.0
2018-Feb-18 07:57N 35°36' E 139°46'0 0.0
2018-Feb-18 07:30N 35°36' E 139°46'0 0.0
2018-Feb-18 07:00N 35°36' E 139°46'0 0.0
2018-Feb-18 06:30N 35°36' E 139°46'0 0.0
2018-Feb-18 06:00N 35°36' E 139°46'0 0.0
2018-Feb-18 05:30N 35°36' E 139°46'0 0.0
2018-Feb-18 05:00N 35°36' E 139°46'0 0.0
2018-Feb-18 04:30N 35°36' E 139°46'0 0.0
2018-Feb-18 04:00N 35°36' E 139°46'0 0.0
2018-Feb-18 03:30N 35°36' E 139°46'0 0.0
2018-Feb-18 03:00N 35°36' E 139°46'0 0.0
2018-Feb-18 02:30N 35°36' E 139°46'0 0.0
2018-Feb-18 02:00N 35°36' E 139°46'0 0.0
2018-Feb-18 01:27N 35°36' E 139°46'0 0.0
2018-Feb-18 01:00N 35°36' E 139°46'0 0.0
2018-Feb-18 00:30N 35°36' E 139°46'0 0.0
2018-Feb-18 00:00N 35°36' E 139°46'0 0.0
2018-Feb-17 23:30N 35°36' E 139°46'0 0.0
2018-Feb-17 23:00N 35°36' E 139°46'1 2.1
2018-Feb-17 22:30N 35°36' E 139°47'510.8
2018-Feb-17 22:00N 35°32' E 139°52'713.3
2018-Feb-17 21:30N 35°26' E 139°48'713.3
2018-Feb-17 21:00N 35°20' E 139°45'611.5
2018-Feb-17 20:31N 35°15' E 139°47'611.9
2018-Feb-17 20:01N 35°09' E 139°47'4 7.1
2018-Feb-17 19:30N 35°05' E 139°45'4 8.3
2018-Feb-17 19:00N 35°02' E 139°44'5 9.2
2018-Feb-17 18:31N 34°57' E 139°41'611.6
2018-Feb-17 18:00N 34°52' E 139°38'611.6
2018-Feb-17 17:30N 34°47' E 139°34'1012.2
2018-Feb-17 16:42N 34°39' E 139°28'312.6
2018-Feb-17 16:26N 34°37' E 139°25'512.6
2018-Feb-17 16:00N 34°35' E 139°19'714.2
2018-Feb-17 15:30N 34°33' E 139°11'713.4
2018-Feb-17 15:00N 34°29' E 139°04'714.0
2018-Feb-17 14:30N 34°25' E 138°57'814.0
2018-Feb-17 13:57N 34°21' E 138°49'614.1
2018-Feb-17 13:29N 34°17' E 138°43'714.5
2018-Feb-17 12:58N 34°14' E 138°34'815.5
2018-Feb-17 12:28N 34°10' E 138°26'815.3
2018-Feb-17 11:58N 34°06' E 138°18'  
2018-Feb-15 06:04N 24°33' E 123°45'120.8
2018-Feb-15 06:00N 24°32' E 123°44'1121.2
2018-Feb-15 05:30N 24°24' E 123°36'1121.4
2018-Feb-15 05:00N 24°16' E 123°29'1121.2
2018-Feb-15 04:30N 24°07' E 123°23'1121.8
2018-Feb-15 04:00N 23°57' E 123°18'1122.2
2018-Feb-15 03:30N 23°47' E 123°13'1122.0
2018-Feb-15 03:00N 23°37' E 123°07'57421.0
2018-Feb-13 23:45N 14°25' E 120°24'618.7
2018-Feb-13 23:27N 14°23' E 120°30'817.4
2018-Feb-13 23:00N 14°26' E 120°37'1019.1
2018-Feb-13 22:30N 14°32' E 120°45'815.9
2018-Feb-13 22:00N 14°35' E 120°53'4 8.3
2018-Feb-13 21:30N 14°36' E 120°57'0 0.4
2018-Feb-13 21:00N 14°36' E 120°57'0 0.0
2018-Feb-13 20:24N 14°36' E 120°57'0 0.0
2018-Feb-13 20:00N 14°36' E 120°57'0 0.0
2018-Feb-13 19:30N 14°36' E 120°57'0 0.0
2018-Feb-13 19:00N 14°36' E 120°57'0 0.0
2018-Feb-13 18:30N 14°36' E 120°57'0 0.1
2018-Feb-13 18:00N 14°36' E 120°57'0 0.1
2018-Feb-13 17:30N 14°36' E 120°57'0 0.0
2018-Feb-13 17:00N 14°36' E 120°57'0 0.0
2018-Feb-13 16:30N 14°36' E 120°57'0 0.0
2018-Feb-13 16:00N 14°36' E 120°57'0 0.0
2018-Feb-13 15:30N 14°36' E 120°57'0 0.0
2018-Feb-13 14:54N 14°36' E 120°57'0 0.0
2018-Feb-13 14:27N 14°36' E 120°57'0 0.0
2018-Feb-13 13:54N 14°36' E 120°57'0 0.1
2018-Feb-13 13:30N 14°36' E 120°57'0 0.1
2018-Feb-13 13:00N 14°36' E 120°57'0 0.1
2018-Feb-13 12:30N 14°36' E 120°57'0 0.1
2018-Feb-13 12:00N 14°36' E 120°57'0 0.0
2018-Feb-13 11:30N 14°36' E 120°57'0 0.0
2018-Feb-13 10:42N 14°36' E 120°57'0 0.0
2018-Feb-13 10:30N 14°36' E 120°57'0 0.0
2018-Feb-13 10:00N 14°36' E 120°57'0 0.0
2018-Feb-13 09:30N 14°36' E 120°57'0 0.0
2018-Feb-13 09:00N 14°36' E 120°57'0 0.0
2018-Feb-13 08:30N 14°36' E 120°57'0 0.0
2018-Feb-13 08:00N 14°36' E 120°57'0 0.0
2018-Feb-13 07:21N 14°36' E 120°57'0 0.0
2018-Feb-13 07:00N 14°36' E 120°57'0 0.0
2018-Feb-13 05:15N 14°36' E 120°57'0 0.2
2018-Feb-13 04:54N 14°36' E 120°57'0 0.1
2018-Feb-13 04:30N 14°36' E 120°57'0 0.0
2018-Feb-13 01:54N 14°36' E 120°57'0 0.1
2018-Feb-13 01:30N 14°36' E 120°57'0 0.1
2018-Feb-13 00:30N 14°36' E 120°57'0 0.0
2018-Feb-12 23:57N 14°36' E 120°57'0 0.0
2018-Feb-12 23:27N 14°36' E 120°57'0 0.1
2018-Feb-12 22:57N 14°36' E 120°57'0 0.1
2018-Feb-12 22:21N 14°36' E 120°57'0 0.0
2018-Feb-12 19:24N 14°36' E 120°57'0 0.1
2018-Feb-12 19:00N 14°36' E 120°57'1 2.2
2018-Feb-12 18:27N 14°36' E 120°56'3 6.1
2018-Feb-12 18:01N 14°36' E 120°53'5 9.2
2018-Feb-12 17:29N 14°34' E 120°49'  

Dump ship's entire track history